sensor_id;sensor_type;location;lat;lon;timestamp;temperature;humidity
74940;HTU21D;63505;45.226;37.908;2023-06-04T00:00:52;19.69;81.15
74940;HTU21D;63505;45.226;37.908;2023-06-04T00:03:17;19.67;81.10
74940;HTU21D;63505;45.226;37.908;2023-06-04T00:05:43;19.62;81.10
74940;HTU21D;63505;45.226;37.908;2023-06-04T00:08:09;19.57;81.11
74940;HTU21D;63505;45.226;37.908;2023-06-04T00:10:35;19.54;81.14
74940;HTU21D;63505;45.226;37.908;2023-06-04T00:13:01;19.50;81.18
74940;HTU21D;63505;45.226;37.908;2023-06-04T00:15:27;19.45;81.20
74940;HTU21D;63505;45.226;37.908;2023-06-04T00:17:52;19.43;81.23
74940;HTU21D;63505;45.226;37.908;2023-06-04T00:20:18;19.41;81.23
74940;HTU21D;63505;45.226;37.908;2023-06-04T00:22:44;19.39;81.23
74940;HTU21D;63505;45.226;37.908;2023-06-04T00:25:10;19.39;81.24
74940;HTU21D;63505;45.226;37.908;2023-06-04T00:27:36;19.36;81.27
74940;HTU21D;63505;45.226;37.908;2023-06-04T00:30:03;19.37;81.29
74940;HTU21D;63505;45.226;37.908;2023-06-04T00:32:30;19.37;81.27
74940;HTU21D;63505;45.226;37.908;2023-06-04T00:34:56;19.39;81.23
74940;HTU21D;63505;45.226;37.908;2023-06-04T00:37:27;19.41;81.18
74940;HTU21D;63505;45.226;37.908;2023-06-04T00:39:54;19.40;81.16
74940;HTU21D;63505;45.226;37.908;2023-06-04T00:42:20;19.41;81.11
74940;HTU21D;63505;45.226;37.908;2023-06-04T00:44:46;19.41;81.10
74940;HTU21D;63505;45.226;37.908;2023-06-04T00:47:16;19.38;81.15
74940;HTU21D;63505;45.226;37.908;2023-06-04T00:49:44;19.37;81.19
74940;HTU21D;63505;45.226;37.908;2023-06-04T00:52:12;19.35;81.26
74940;HTU21D;63505;45.226;37.908;2023-06-04T00:54:39;19.33;81.30
74940;HTU21D;63505;45.226;37.908;2023-06-04T00:57:06;19.35;81.33
74940;HTU21D;63505;45.226;37.908;2023-06-04T00:59:36;19.35;81.34
74940;HTU21D;63505;45.226;37.908;2023-06-04T01:02:05;19.32;81.35
74940;HTU21D;63505;45.226;37.908;2023-06-04T01:04:44;19.32;81.38
74940;HTU21D;63505;45.226;37.908;2023-06-04T01:07:13;19.31;81.37
74940;HTU21D;63505;45.226;37.908;2023-06-04T01:09:39;19.32;81.38
74940;HTU21D;63505;45.226;37.908;2023-06-04T01:12:06;19.30;81.39
74940;HTU21D;63505;45.226;37.908;2023-06-04T01:14:33;19.32;81.37
74940;HTU21D;63505;45.226;37.908;2023-06-04T01:17:04;19.35;81.34
74940;HTU21D;63505;45.226;37.908;2023-06-04T01:22:38;19.40;81.23
74940;HTU21D;63505;45.226;37.908;2023-06-04T01:25:12;19.42;81.19
74940;HTU21D;63505;45.226;37.908;2023-06-04T01:27:48;19.44;81.15
74940;HTU21D;63505;45.226;37.908;2023-06-04T01:30:15;19.50;81.07
74940;HTU21D;63505;45.226;37.908;2023-06-04T01:32:44;19.51;81.01
74940;HTU21D;63505;45.226;37.908;2023-06-04T01:35:12;19.54;80.98
74940;HTU21D;63505;45.226;37.908;2023-06-04T01:37:38;19.57;80.95
74940;HTU21D;63505;45.226;37.908;2023-06-04T01:40:04;19.58;80.94
74940;HTU21D;63505;45.226;37.908;2023-06-04T01:42:31;19.60;80.88
74940;HTU21D;63505;45.226;37.908;2023-06-04T01:44:57;19.61;80.84
74940;HTU21D;63505;45.226;37.908;2023-06-04T01:47:23;19.63;80.81
74940;HTU21D;63505;45.226;37.908;2023-06-04T01:49:49;19.63;80.75
74940;HTU21D;63505;45.226;37.908;2023-06-04T01:52:15;19.63;80.75
74940;HTU21D;63505;45.226;37.908;2023-06-04T01:54:41;19.62;80.75
74940;HTU21D;63505;45.226;37.908;2023-06-04T01:57:08;19.61;80.73
74940;HTU21D;63505;45.226;37.908;2023-06-04T01:59:35;19.57;80.75
74940;HTU21D;63505;45.226;37.908;2023-06-04T02:02:02;19.58;80.77
74940;HTU21D;63505;45.226;37.908;2023-06-04T02:04:28;19.58;80.76
74940;HTU21D;63505;45.226;37.908;2023-06-04T02:06:54;19.57;80.74
74940;HTU21D;63505;45.226;37.908;2023-06-04T02:09:21;19.59;80.71
74940;HTU21D;63505;45.226;37.908;2023-06-04T02:11:47;19.60;80.67
74940;HTU21D;63505;45.226;37.908;2023-06-04T02:14:13;19.62;80.63
74940;HTU21D;63505;45.226;37.908;2023-06-04T02:16:38;19.66;80.58
74940;HTU21D;63505;45.226;37.908;2023-06-04T02:19:05;19.68;80.54
74940;HTU21D;63505;45.226;37.908;2023-06-04T02:21:31;19.70;80.50
74940;HTU21D;63505;45.226;37.908;2023-06-04T02:23:56;19.70;80.47
74940;HTU21D;63505;45.226;37.908;2023-06-04T02:26:22;19.73;80.47
74940;HTU21D;63505;45.226;37.908;2023-06-04T02:28:49;19.74;80.46
74940;HTU21D;63505;45.226;37.908;2023-06-04T02:31:14;19.74;80.46
74940;HTU21D;63505;45.226;37.908;2023-06-04T02:33:40;19.75;80.46
74940;HTU21D;63505;45.226;37.908;2023-06-04T02:36:06;19.75;80.48
74940;HTU21D;63505;45.226;37.908;2023-06-04T02:38:34;19.76;80.49
74940;HTU21D;63505;45.226;37.908;2023-06-04T02:41:00;19.76;80.52
74940;HTU21D;63505;45.226;37.908;2023-06-04T02:43:26;19.76;80.56
74940;HTU21D;63505;45.226;37.908;2023-06-04T02:45:52;19.76;80.59
74940;HTU21D;63505;45.226;37.908;2023-06-04T02:48:18;19.76;80.62
74940;HTU21D;63505;45.226;37.908;2023-06-04T02:50:44;19.76;80.69
74940;HTU21D;63505;45.226;37.908;2023-06-04T02:53:09;19.74;80.75
74940;HTU21D;63505;45.226;37.908;2023-06-04T02:55:35;19.76;80.77
74940;HTU21D;63505;45.226;37.908;2023-06-04T02:58:01;19.76;80.82
74940;HTU21D;63505;45.226;37.908;2023-06-04T03:00:28;19.77;80.87
74940;HTU21D;63505;45.226;37.908;2023-06-04T03:02:54;19.79;80.92
74940;HTU21D;63505;45.226;37.908;2023-06-04T03:05:26;19.79;80.96
74940;HTU21D;63505;45.226;37.908;2023-06-04T03:07:52;19.80;81.01
74940;HTU21D;63505;45.226;37.908;2023-06-04T03:10:19;19.82;81.07
74940;HTU21D;63505;45.226;37.908;2023-06-04T03:12:45;19.82;81.08
74940;HTU21D;63505;45.226;37.908;2023-06-04T03:15:11;19.85;81.09
74940;HTU21D;63505;45.226;37.908;2023-06-04T03:17:37;19.85;81.10
74940;HTU21D;63505;45.226;37.908;2023-06-04T03:20:04;19.87;81.09
74940;HTU21D;63505;45.226;37.908;2023-06-04T03:22:30;19.90;81.06
74940;HTU21D;63505;45.226;37.908;2023-06-04T03:24:56;19.96;81.02
74940;HTU21D;63505;45.226;37.908;2023-06-04T03:27:22;20.01;80.97
74940;HTU21D;63505;45.226;37.908;2023-06-04T03:29:48;20.06;80.89
74940;HTU21D;63505;45.226;37.908;2023-06-04T03:32:15;20.12;80.82
74940;HTU21D;63505;45.226;37.908;2023-06-04T03:34:42;20.18;80.72
74940;HTU21D;63505;45.226;37.908;2023-06-04T03:37:08;20.21;80.65
74940;HTU21D;63505;45.226;37.908;2023-06-04T03:39:34;20.22;80.62
74940;HTU21D;63505;45.226;37.908;2023-06-04T03:42:04;20.22;80.62
74940;HTU21D;63505;45.226;37.908;2023-06-04T03:44:31;20.20;80.65
74940;HTU21D;63505;45.226;37.908;2023-06-04T03:46:57;20.18;80.69
74940;HTU21D;63505;45.226;37.908;2023-06-04T03:49:24;20.11;80.73
74940;HTU21D;63505;45.226;37.908;2023-06-04T03:51:50;20.04;80.81
74940;HTU21D;63505;45.226;37.908;2023-06-04T03:54:17;19.96;80.92
74940;HTU21D;63505;45.226;37.908;2023-06-04T03:56:45;19.88;81.03
74940;HTU21D;63505;45.226;37.908;2023-06-04T03:59:12;19.81;81.10
74940;HTU21D;63505;45.226;37.908;2023-06-04T04:01:38;19.75;81.19
74940;HTU21D;63505;45.226;37.908;2023-06-04T04:04:05;19.68;81.22
74940;HTU21D;63505;45.226;37.908;2023-06-04T04:06:31;19.61;81.37
74940;HTU21D;63505;45.226;37.908;2023-06-04T04:08:57;19.51;81.60
74940;HTU21D;63505;45.226;37.908;2023-06-04T04:11:23;19.42;82.03
74940;HTU21D;63505;45.226;37.908;2023-06-04T04:13:50;19.33;82.30
74940;HTU21D;63505;45.226;37.908;2023-06-04T04:16:17;19.30;82.65
74940;HTU21D;63505;45.226;37.908;2023-06-04T04:18:43;19.28;82.87
74940;HTU21D;63505;45.226;37.908;2023-06-04T04:21:10;19.25;82.97
74940;HTU21D;63505;45.226;37.908;2023-06-04T04:23:38;19.26;82.86
74940;HTU21D;63505;45.226;37.908;2023-06-04T04:26:07;19.29;82.70
74940;HTU21D;63505;45.226;37.908;2023-06-04T04:28:34;19.29;82.67
74940;HTU21D;63505;45.226;37.908;2023-06-04T04:31:01;19.28;82.60
74940;HTU21D;63505;45.226;37.908;2023-06-04T04:33:30;19.27;82.52
74940;HTU21D;63505;45.226;37.908;2023-06-04T04:36:04;19.25;82.41
74940;HTU21D;63505;45.226;37.908;2023-06-04T04:38:31;19.22;82.34
74940;HTU21D;63505;45.226;37.908;2023-06-04T04:41:02;19.20;82.37
74940;HTU21D;63505;45.226;37.908;2023-06-04T04:43:33;19.17;82.42
74940;HTU21D;63505;45.226;37.908;2023-06-04T04:46:06;19.15;82.46
74940;HTU21D;63505;45.226;37.908;2023-06-04T04:48:32;19.13;82.62
74940;HTU21D;63505;45.226;37.908;2023-06-04T04:50:58;19.10;82.76
74940;HTU21D;63505;45.226;37.908;2023-06-04T04:53:26;19.03;82.97
74940;HTU21D;63505;45.226;37.908;2023-06-04T04:55:52;19.00;83.12
74940;HTU21D;63505;45.226;37.908;2023-06-04T04:58:18;18.98;83.16
74940;HTU21D;63505;45.226;37.908;2023-06-04T05:00:44;18.97;83.25
74940;HTU21D;63505;45.226;37.908;2023-06-04T05:03:11;18.96;83.26
74940;HTU21D;63505;45.226;37.908;2023-06-04T05:05:37;18.95;83.25
74940;HTU21D;63505;45.226;37.908;2023-06-04T05:08:04;18.96;83.26
74940;HTU21D;63505;45.226;37.908;2023-06-04T05:10:35;18.93;83.26
74940;HTU21D;63505;45.226;37.908;2023-06-04T05:13:05;18.92;83.29
74940;HTU21D;63505;45.226;37.908;2023-06-04T05:15:38;18.89;83.31
74940;HTU21D;63505;45.226;37.908;2023-06-04T05:18:07;18.87;83.39
74940;HTU21D;63505;45.226;37.908;2023-06-04T05:20:36;18.83;83.48
74940;HTU21D;63505;45.226;37.908;2023-06-04T05:23:06;18.82;83.58
74940;HTU21D;63505;45.226;37.908;2023-06-04T05:25:32;18.80;83.67
74940;HTU21D;63505;45.226;37.908;2023-06-04T05:27:59;18.77;83.73
74940;HTU21D;63505;45.226;37.908;2023-06-04T05:30:26;18.73;83.93
74940;HTU21D;63505;45.226;37.908;2023-06-04T05:32:52;18.70;84.11
74940;HTU21D;63505;45.226;37.908;2023-06-04T05:35:22;18.69;84.26
74940;HTU21D;63505;45.226;37.908;2023-06-04T05:37:48;18.68;84.43
74940;HTU21D;63505;45.226;37.908;2023-06-04T05:40:22;18.69;84.46
74940;HTU21D;63505;45.226;37.908;2023-06-04T05:42:49;18.69;84.52
74940;HTU21D;63505;45.226;37.908;2023-06-04T05:45:15;18.68;84.60
74940;HTU21D;63505;45.226;37.908;2023-06-04T05:47:42;18.67;84.78
74940;HTU21D;63505;45.226;37.908;2023-06-04T05:50:09;18.65;85.00
74940;HTU21D;63505;45.226;37.908;2023-06-04T05:52:37;18.63;85.22
74940;HTU21D;63505;45.226;37.908;2023-06-04T05:55:06;18.63;85.37
74940;HTU21D;63505;45.226;37.908;2023-06-04T05:57:34;18.64;85.43
74940;HTU21D;63505;45.226;37.908;2023-06-04T06:00:01;18.67;85.39
74940;HTU21D;63505;45.226;37.908;2023-06-04T06:02:27;18.69;85.29
74940;HTU21D;63505;45.226;37.908;2023-06-04T06:04:53;18.72;85.19
74940;HTU21D;63505;45.226;37.908;2023-06-04T06:07:18;18.74;85.11
74940;HTU21D;63505;45.226;37.908;2023-06-04T06:09:45;18.78;85.06
74940;HTU21D;63505;45.226;37.908;2023-06-04T06:12:11;18.79;85.06
74940;HTU21D;63505;45.226;37.908;2023-06-04T06:14:39;18.81;85.09
74940;HTU21D;63505;45.226;37.908;2023-06-04T06:17:05;18.83;85.12
74940;HTU21D;63505;45.226;37.908;2023-06-04T06:19:32;18.86;85.13
74940;HTU21D;63505;45.226;37.908;2023-06-04T06:21:58;18.88;85.13
74940;HTU21D;63505;45.226;37.908;2023-06-04T06:24:26;18.91;85.19
74940;HTU21D;63505;45.226;37.908;2023-06-04T06:26:52;18.93;85.28
74940;HTU21D;63505;45.226;37.908;2023-06-04T06:29:18;18.94;85.29
74940;HTU21D;63505;45.226;37.908;2023-06-04T06:31:45;18.97;85.29
74940;HTU21D;63505;45.226;37.908;2023-06-04T06:34:11;18.99;85.22
74940;HTU21D;63505;45.226;37.908;2023-06-04T06:36:37;19.05;85.13
74940;HTU21D;63505;45.226;37.908;2023-06-04T06:39:03;19.09;85.03
74940;HTU21D;63505;45.226;37.908;2023-06-04T06:41:29;19.14;84.96
74940;HTU21D;63505;45.226;37.908;2023-06-04T06:43:58;19.17;84.90
74940;HTU21D;63505;45.226;37.908;2023-06-04T06:46:23;19.20;84.82
74940;HTU21D;63505;45.226;37.908;2023-06-04T06:48:49;19.25;84.81
74940;HTU21D;63505;45.226;37.908;2023-06-04T06:51:15;19.31;84.74
74940;HTU21D;63505;45.226;37.908;2023-06-04T06:53:42;19.37;84.72
74940;HTU21D;63505;45.226;37.908;2023-06-04T06:56:07;19.42;84.71
74940;HTU21D;63505;45.226;37.908;2023-06-04T06:58:33;19.45;84.68
74940;HTU21D;63505;45.226;37.908;2023-06-04T07:00:59;19.50;84.68
74940;HTU21D;63505;45.226;37.908;2023-06-04T07:03:25;19.54;84.74
74940;HTU21D;63505;45.226;37.908;2023-06-04T07:05:51;19.57;84.75
74940;HTU21D;63505;45.226;37.908;2023-06-04T07:08:18;19.60;84.77
74940;HTU21D;63505;45.226;37.908;2023-06-04T07:10:43;19.63;84.78
74940;HTU21D;63505;45.226;37.908;2023-06-04T07:13:09;19.70;84.72
74940;HTU21D;63505;45.226;37.908;2023-06-04T07:15:35;19.73;84.68
74940;HTU21D;63505;45.226;37.908;2023-06-04T07:18:01;19.75;84.63
74940;HTU21D;63505;45.226;37.908;2023-06-04T07:20:26;19.79;84.59
74940;HTU21D;63505;45.226;37.908;2023-06-04T07:22:52;19.79;84.58
74940;HTU21D;63505;45.226;37.908;2023-06-04T07:25:19;19.82;84.58
74940;HTU21D;63505;45.226;37.908;2023-06-04T07:27:45;19.85;84.52
74940;HTU21D;63505;45.226;37.908;2023-06-04T07:30:11;19.87;84.45
74940;HTU21D;63505;45.226;37.908;2023-06-04T07:32:37;19.90;84.39
74940;HTU21D;63505;45.226;37.908;2023-06-04T07:35:03;19.97;84.30
74940;HTU21D;63505;45.226;37.908;2023-06-04T07:37:29;20.05;84.22
74940;HTU21D;63505;45.226;37.908;2023-06-04T07:39:55;20.17;84.09
74940;HTU21D;63505;45.226;37.908;2023-06-04T07:42:21;20.29;83.91
74940;HTU21D;63505;45.226;37.908;2023-06-04T07:44:47;20.43;83.75
74940;HTU21D;63505;45.226;37.908;2023-06-04T07:47:12;20.61;83.55
74940;HTU21D;63505;45.226;37.908;2023-06-04T07:49:38;20.78;83.32
74940;HTU21D;63505;45.226;37.908;2023-06-04T07:52:04;20.99;83.10
74940;HTU21D;63505;45.226;37.908;2023-06-04T07:54:30;21.24;82.81
74940;HTU21D;63505;45.226;37.908;2023-06-04T07:56:57;21.51;82.42
74940;HTU21D;63505;45.226;37.908;2023-06-04T07:59:23;21.76;82.04
74940;HTU21D;63505;45.226;37.908;2023-06-04T08:01:50;21.95;81.62
74940;HTU21D;63505;45.226;37.908;2023-06-04T08:04:19;22.09;81.43
74940;HTU21D;63505;45.226;37.908;2023-06-04T08:06:45;22.24;81.14
74940;HTU21D;63505;45.226;37.908;2023-06-04T08:09:12;22.37;80.78
74940;HTU21D;63505;45.226;37.908;2023-06-04T08:11:41;22.52;80.43
74940;HTU21D;63505;45.226;37.908;2023-06-04T08:14:07;22.66;80.27
74940;HTU21D;63505;45.226;37.908;2023-06-04T08:16:33;22.85;80.09
74940;HTU21D;63505;45.226;37.908;2023-06-04T08:18:58;22.97;79.76
74940;HTU21D;63505;45.226;37.908;2023-06-04T08:21:26;23.05;79.60
74940;HTU21D;63505;45.226;37.908;2023-06-04T08:23:52;23.10;79.17
74940;HTU21D;63505;45.226;37.908;2023-06-04T08:26:18;23.05;78.76
74940;HTU21D;63505;45.226;37.908;2023-06-04T08:28:47;22.96;78.48
74940;HTU21D;63505;45.226;37.908;2023-06-04T08:31:14;22.77;78.43
74940;HTU21D;63505;45.226;37.908;2023-06-04T08:33:40;22.76;78.53
74940;HTU21D;63505;45.226;37.908;2023-06-04T08:36:07;22.77;78.42
74940;HTU21D;63505;45.226;37.908;2023-06-04T08:38:32;22.73;78.24
74940;HTU21D;63505;45.226;37.908;2023-06-04T08:41:06;22.78;78.21
74940;HTU21D;63505;45.226;37.908;2023-06-04T08:43:36;22.88;77.97
74940;HTU21D;63505;45.226;37.908;2023-06-04T08:46:05;23.01;77.70
74940;HTU21D;63505;45.226;37.908;2023-06-04T08:48:34;23.32;77.37
74940;HTU21D;63505;45.226;37.908;2023-06-04T08:51:02;23.72;76.95
74940;HTU21D;63505;45.226;37.908;2023-06-04T08:53:31;24.14;76.12
74940;HTU21D;63505;45.226;37.908;2023-06-04T08:55:57;24.31;75.46
74940;HTU21D;63505;45.226;37.908;2023-06-04T08:58:24;24.51;74.45
74940;HTU21D;63505;45.226;37.908;2023-06-04T09:00:51;24.76;74.04
74940;HTU21D;63505;45.226;37.908;2023-06-04T09:03:17;24.87;73.60
74940;HTU21D;63505;45.226;37.908;2023-06-04T09:05:47;24.93;72.64
74940;HTU21D;63505;45.226;37.908;2023-06-04T09:08:17;24.85;71.77
74940;HTU21D;63505;45.226;37.908;2023-06-04T09:10:44;24.86;71.83
74940;HTU21D;63505;45.226;37.908;2023-06-04T09:13:13;24.83;71.90
74940;HTU21D;63505;45.226;37.908;2023-06-04T09:15:39;24.78;71.36
74940;HTU21D;63505;45.226;37.908;2023-06-04T09:18:05;24.77;71.41
74940;HTU21D;63505;45.226;37.908;2023-06-04T09:20:31;24.80;71.13
74940;HTU21D;63505;45.226;37.908;2023-06-04T09:22:58;24.87;70.29
74940;HTU21D;63505;45.226;37.908;2023-06-04T09:25:26;24.88;69.98
74940;HTU21D;63505;45.226;37.908;2023-06-04T09:27:56;24.80;70.13
74940;HTU21D;63505;45.226;37.908;2023-06-04T09:30:23;24.79;70.32
74940;HTU21D;63505;45.226;37.908;2023-06-04T09:32:50;24.88;70.44
74940;HTU21D;63505;45.226;37.908;2023-06-04T09:35:17;25.02;70.43
74940;HTU21D;63505;45.226;37.908;2023-06-04T09:37:52;25.09;70.29
74940;HTU21D;63505;45.226;37.908;2023-06-04T09:40:18;25.09;70.15
74940;HTU21D;63505;45.226;37.908;2023-06-04T09:42:46;24.93;69.96
74940;HTU21D;63505;45.226;37.908;2023-06-04T09:45:29;24.83;70.05
74940;HTU21D;63505;45.226;37.908;2023-06-04T09:47:55;24.86;70.13
74940;HTU21D;63505;45.226;37.908;2023-06-04T09:50:31;25.01;69.79
74940;HTU21D;63505;45.226;37.908;2023-06-04T09:52:59;25.07;69.45
74940;HTU21D;63505;45.226;37.908;2023-06-04T09:55:25;25.02;69.43
74940;HTU21D;63505;45.226;37.908;2023-06-04T09:57:52;24.99;69.51
74940;HTU21D;63505;45.226;37.908;2023-06-04T10:00:20;24.91;69.49
74940;HTU21D;63505;45.226;37.908;2023-06-04T10:02:47;24.80;69.58
74940;HTU21D;63505;45.226;37.908;2023-06-04T10:05:14;24.79;69.68
74940;HTU21D;63505;45.226;37.908;2023-06-04T10:07:43;24.79;69.55
74940;HTU21D;63505;45.226;37.908;2023-06-04T10:10:30;24.70;69.43
74940;HTU21D;63505;45.226;37.908;2023-06-04T10:13:06;24.59;69.61
74940;HTU21D;63505;45.226;37.908;2023-06-04T10:15:35;24.56;69.53
74940;HTU21D;63505;45.226;37.908;2023-06-04T10:18:02;24.62;69.35
74940;HTU21D;63505;45.226;37.908;2023-06-04T10:20:30;24.69;69.08
74940;HTU21D;63505;45.226;37.908;2023-06-04T10:22:56;24.75;69.10
74940;HTU21D;63505;45.226;37.908;2023-06-04T10:25:23;24.92;68.90
74940;HTU21D;63505;45.226;37.908;2023-06-04T10:27:50;25.10;68.43
74940;HTU21D;63505;45.226;37.908;2023-06-04T10:30:17;25.21;68.15
74940;HTU21D;63505;45.226;37.908;2023-06-04T10:32:42;25.45;67.84
74940;HTU21D;63505;45.226;37.908;2023-06-04T10:35:09;25.67;67.45
74940;HTU21D;63505;45.226;37.908;2023-06-04T10:37:35;25.91;67.00
74940;HTU21D;63505;45.226;37.908;2023-06-04T10:40:01;25.93;66.72
74940;HTU21D;63505;45.226;37.908;2023-06-04T10:42:41;25.98;66.34
74940;HTU21D;63505;45.226;37.908;2023-06-04T10:45:09;26.08;65.91
74940;HTU21D;63505;45.226;37.908;2023-06-04T10:47:35;26.26;65.53
74940;HTU21D;63505;45.226;37.908;2023-06-04T10:50:10;26.32;65.13
74940;HTU21D;63505;45.226;37.908;2023-06-04T10:52:52;26.33;64.88
74940;HTU21D;63505;45.226;37.908;2023-06-04T10:55:19;26.42;64.75
74940;HTU21D;63505;45.226;37.908;2023-06-04T11:00:19;26.68;64.10
74940;HTU21D;63505;45.226;37.908;2023-06-04T11:02:52;26.80;63.54
74940;HTU21D;63505;45.226;37.908;2023-06-04T11:05:19;26.70;63.47
74940;HTU21D;63505;45.226;37.908;2023-06-04T11:07:47;26.70;63.36
74940;HTU21D;63505;45.226;37.908;2023-06-04T11:10:14;26.71;63.11
74940;HTU21D;63505;45.226;37.908;2023-06-04T11:12:47;26.71;63.10
74940;HTU21D;63505;45.226;37.908;2023-06-04T11:15:16;26.61;62.89
74940;HTU21D;63505;45.226;37.908;2023-06-04T11:17:52;26.58;62.91
74940;HTU21D;63505;45.226;37.908;2023-06-04T11:20:19;26.65;62.89
74940;HTU21D;63505;45.226;37.908;2023-06-04T11:22:56;26.54;62.76
74940;HTU21D;63505;45.226;37.908;2023-06-04T11:25:26;26.37;62.95
74940;HTU21D;63505;45.226;37.908;2023-06-04T11:27:54;26.10;62.90
74940;HTU21D;63505;45.226;37.908;2023-06-04T11:30:23;25.92;63.05
74940;HTU21D;63505;45.226;37.908;2023-06-04T11:32:50;25.75;63.05
74940;HTU21D;63505;45.226;37.908;2023-06-04T11:35:16;25.57;63.15
74940;HTU21D;63505;45.226;37.908;2023-06-04T11:37:41;25.45;63.31
74940;HTU21D;63505;45.226;37.908;2023-06-04T11:40:19;25.39;63.49
74940;HTU21D;63505;45.226;37.908;2023-06-04T11:42:48;25.27;63.66
74940;HTU21D;63505;45.226;37.908;2023-06-04T11:45:19;25.12;63.93
74940;HTU21D;63505;45.226;37.908;2023-06-04T11:47:54;24.95;63.98
74940;HTU21D;63505;45.226;37.908;2023-06-04T11:50:22;24.77;64.22
74940;HTU21D;63505;45.226;37.908;2023-06-04T11:52:49;24.62;64.34
74940;HTU21D;63505;45.226;37.908;2023-06-04T11:55:15;24.57;64.43
74940;HTU21D;63505;45.226;37.908;2023-06-04T11:57:43;24.55;64.50
74940;HTU21D;63505;45.226;37.908;2023-06-04T12:00:10;24.49;64.61
74940;HTU21D;63505;45.226;37.908;2023-06-04T12:02:56;24.46;64.91
74940;HTU21D;63505;45.226;37.908;2023-06-04T12:05:28;24.43;65.08
74940;HTU21D;63505;45.226;37.908;2023-06-04T12:08:07;24.34;65.26
74940;HTU21D;63505;45.226;37.908;2023-06-04T12:10:42;24.27;65.40
74940;HTU21D;63505;45.226;37.908;2023-06-04T12:13:09;24.19;65.49
74940;HTU21D;63505;45.226;37.908;2023-06-04T12:15:35;24.17;65.55
74940;HTU21D;63505;45.226;37.908;2023-06-04T12:18:01;24.12;65.65
74940;HTU21D;63505;45.226;37.908;2023-06-04T12:20:39;24.00;65.75
74940;HTU21D;63505;45.226;37.908;2023-06-04T12:23:05;23.86;65.98
74940;HTU21D;63505;45.226;37.908;2023-06-04T12:25:32;23.71;66.17
74940;HTU21D;63505;45.226;37.908;2023-06-04T12:27:59;23.62;66.31
74940;HTU21D;63505;45.226;37.908;2023-06-04T12:30:40;23.56;66.30
74940;HTU21D;63505;45.226;37.908;2023-06-04T12:33:06;23.54;66.29
74940;HTU21D;63505;45.226;37.908;2023-06-04T12:35:33;23.55;66.17
74940;HTU21D;63505;45.226;37.908;2023-06-04T12:37:59;23.56;66.10
74940;HTU21D;63505;45.226;37.908;2023-06-04T12:40:25;23.62;65.91
74940;HTU21D;63505;45.226;37.908;2023-06-04T12:42:51;23.69;65.69
74940;HTU21D;63505;45.226;37.908;2023-06-04T12:45:17;23.74;65.55
74940;HTU21D;63505;45.226;37.908;2023-06-04T12:47:43;23.83;65.50
74940;HTU21D;63505;45.226;37.908;2023-06-04T12:50:10;23.89;65.30
74940;HTU21D;63505;45.226;37.908;2023-06-04T12:52:36;23.98;65.27
74940;HTU21D;63505;45.226;37.908;2023-06-04T12:55:02;24.04;65.24
74940;HTU21D;63505;45.226;37.908;2023-06-04T12:57:27;24.11;65.19
74940;HTU21D;63505;45.226;37.908;2023-06-04T12:59:53;24.15;65.08
74940;HTU21D;63505;45.226;37.908;2023-06-04T13:02:19;24.20;65.08
74940;HTU21D;63505;45.226;37.908;2023-06-04T13:04:45;24.30;65.11
74940;HTU21D;63505;45.226;37.908;2023-06-04T13:07:11;24.41;65.01
74940;HTU21D;63505;45.226;37.908;2023-06-04T13:09:37;24.55;64.93
74940;HTU21D;63505;45.226;37.908;2023-06-04T13:12:03;24.72;64.88
74940;HTU21D;63505;45.226;37.908;2023-06-04T13:14:31;24.94;64.56
74940;HTU21D;63505;45.226;37.908;2023-06-04T13:17:01;25.10;64.37
74940;HTU21D;63505;45.226;37.908;2023-06-04T13:19:26;25.18;64.14
74940;HTU21D;63505;45.226;37.908;2023-06-04T13:21:52;25.21;63.72
74940;HTU21D;63505;45.226;37.908;2023-06-04T13:24:18;25.19;63.89
74940;HTU21D;63505;45.226;37.908;2023-06-04T13:26:44;25.30;64.07
74940;HTU21D;63505;45.226;37.908;2023-06-04T13:29:10;25.44;63.96
74940;HTU21D;63505;45.226;37.908;2023-06-04T13:31:36;25.60;63.90
74940;HTU21D;63505;45.226;37.908;2023-06-04T13:34:03;25.67;63.37
74940;HTU21D;63505;45.226;37.908;2023-06-04T13:36:29;25.75;62.72
74940;HTU21D;63505;45.226;37.908;2023-06-04T13:38:54;25.78;62.29
74940;HTU21D;63505;45.226;37.908;2023-06-04T13:41:20;25.80;61.93
74940;HTU21D;63505;45.226;37.908;2023-06-04T13:43:46;25.73;61.02
74940;HTU21D;63505;45.226;37.908;2023-06-04T13:46:12;25.76;61.36
74940;HTU21D;63505;45.226;37.908;2023-06-04T13:48:38;25.76;61.57
74940;HTU21D;63505;45.226;37.908;2023-06-04T13:51:04;25.77;61.57
74940;HTU21D;63505;45.226;37.908;2023-06-04T13:53:30;25.78;61.29
74940;HTU21D;63505;45.226;37.908;2023-06-04T13:55:56;25.74;61.28
74940;HTU21D;63505;45.226;37.908;2023-06-04T13:58:27;25.73;61.44
74940;HTU21D;63505;45.226;37.908;2023-06-04T14:00:53;25.65;61.50
74940;HTU21D;63505;45.226;37.908;2023-06-04T14:03:19;25.52;61.73
74940;HTU21D;63505;45.226;37.908;2023-06-04T14:05:45;25.32;62.01
74940;HTU21D;63505;45.226;37.908;2023-06-04T14:08:11;25.16;62.23
74940;HTU21D;63505;45.226;37.908;2023-06-04T14:10:38;24.97;62.41
74940;HTU21D;63505;45.226;37.908;2023-06-04T14:13:07;24.86;62.82
74940;HTU21D;63505;45.226;37.908;2023-06-04T14:15:33;24.84;63.01
74940;HTU21D;63505;45.226;37.908;2023-06-04T14:17:59;24.87;63.07
74940;HTU21D;63505;45.226;37.908;2023-06-04T14:20:25;24.82;63.15
74940;HTU21D;63505;45.226;37.908;2023-06-04T14:22:51;24.78;63.32
74940;HTU21D;63505;45.226;37.908;2023-06-04T14:25:17;24.84;63.48
74940;HTU21D;63505;45.226;37.908;2023-06-04T14:27:42;24.87;63.48
74940;HTU21D;63505;45.226;37.908;2023-06-04T14:30:09;24.84;63.63
74940;HTU21D;63505;45.226;37.908;2023-06-04T14:32:35;24.84;63.80
74940;HTU21D;63505;45.226;37.908;2023-06-04T14:35:02;24.78;63.76
74940;HTU21D;63505;45.226;37.908;2023-06-04T14:37:27;24.70;63.92
74940;HTU21D;63505;45.226;37.908;2023-06-04T14:39:53;24.63;64.19
74940;HTU21D;63505;45.226;37.908;2023-06-04T14:42:19;24.54;64.56
74940;HTU21D;63505;45.226;37.908;2023-06-04T14:44:46;24.47;64.89
74940;HTU21D;63505;45.226;37.908;2023-06-04T14:47:12;24.51;64.95
74940;HTU21D;63505;45.226;37.908;2023-06-04T14:49:38;24.58;64.97
74940;HTU21D;63505;45.226;37.908;2023-06-04T14:52:04;24.68;64.92
74940;HTU21D;63505;45.226;37.908;2023-06-04T14:54:30;24.63;64.80
74940;HTU21D;63505;45.226;37.908;2023-06-04T14:56:56;24.44;64.98
74940;HTU21D;63505;45.226;37.908;2023-06-04T14:59:22;24.26;65.27
74940;HTU21D;63505;45.226;37.908;2023-06-04T15:01:48;24.14;65.63
74940;HTU21D;63505;45.226;37.908;2023-06-04T15:04:14;24.11;65.88
74940;HTU21D;63505;45.226;37.908;2023-06-04T15:06:40;24.08;66.04
74940;HTU21D;63505;45.226;37.908;2023-06-04T15:09:05;24.10;66.07